sensor_id;sensor_type;location;lat;lon;timestamp;P1;durP1;ratioP1;P2;durP2;ratioP2
31043;SDS011;17710;52.520;13.352;2023-02-12T00:02:06;20.40;;;7.38;;
31043;SDS011;17710;52.520;13.352;2023-02-12T00:04:33;23.02;;;7.22;;
31043;SDS011;17710;52.520;13.352;2023-02-12T00:06:59;21.25;;;6.55;;
31043;SDS011;17710;52.520;13.352;2023-02-12T00:09:26;17.20;;;6.55;;
31043;SDS011;17710;52.520;13.352;2023-02-12T00:11:52;31.08;;;6.80;;
31043;SDS011;17710;52.520;13.352;2023-02-12T00:14:20;18.42;;;5.72;;
31043;SDS011;17710;52.520;13.352;2023-02-12T00:16:46;17.00;;;6.03;;
31043;SDS011;17710;52.520;13.352;2023-02-12T00:19:12;22.42;;;6.50;;
31043;SDS011;17710;52.520;13.352;2023-02-12T00:21:39;23.90;;;7.05;;
31043;SDS011;17710;52.520;13.352;2023-02-12T00:24:05;22.25;;;5.53;;
31043;SDS011;17710;52.520;13.352;2023-02-12T00:26:32;24.80;;;7.10;;
31043;SDS011;17710;52.520;13.352;2023-02-12T00:28:58;17.25;;;6.07;;
31043;SDS011;17710;52.520;13.352;2023-02-12T00:31:27;22.23;;;5.78;;
31043;SDS011;17710;52.520;13.352;2023-02-12T00:33:56;20.63;;;5.78;;
31043;SDS011;17710;52.520;13.352;2023-02-12T00:36:24;22.20;;;5.93;;
31043;SDS011;17710;52.520;13.352;2023-02-12T00:38:53;17.90;;;6.25;;
31043;SDS011;17710;52.520;13.352;2023-02-12T00:41:20;21.40;;;5.95;;
31043;SDS011;17710;52.520;13.352;2023-02-12T00:43:47;22.17;;;6.20;;
31043;SDS011;17710;52.520;13.352;2023-02-12T00:46:14;20.98;;;5.55;;
31043;SDS011;17710;52.520;13.352;2023-02-12T00:48:41;18.65;;;6.10;;
31043;SDS011;17710;52.520;13.352;2023-02-12T00:51:08;17.95;;;5.22;;
31043;SDS011;17710;52.520;13.352;2023-02-12T00:53:34;18.15;;;6.10;;
31043;SDS011;17710;52.520;13.352;2023-02-12T00:56:02;21.63;;;5.47;;
31043;SDS011;17710;52.520;13.352;2023-02-12T00:58:29;21.58;;;6.18;;
31043;SDS011;17710;52.520;13.352;2023-02-12T01:00:55;19.02;;;5.68;;
31043;SDS011;17710;52.520;13.352;2023-02-12T01:03:21;19.10;;;5.60;;
31043;SDS011;17710;52.520;13.352;2023-02-12T01:05:49;17.58;;;5.45;;
31043;SDS011;17710;52.520;13.352;2023-02-12T01:08:16;18.80;;;5.50;;
31043;SDS011;17710;52.520;13.352;2023-02-12T01:10:42;16.48;;;4.90;;
31043;SDS011;17710;52.520;13.352;2023-02-12T01:13:09;20.45;;;5.13;;
31043;SDS011;17710;52.520;13.352;2023-02-12T01:15:37;23.85;;;5.45;;
31043;SDS011;17710;52.520;13.352;2023-02-12T01:18:04;26.17;;;5.53;;
31043;SDS011;17710;52.520;13.352;2023-02-12T01:20:30;22.80;;;5.80;;
31043;SDS011;17710;52.520;13.352;2023-02-12T01:22:58;22.05;;;5.68;;
31043;SDS011;17710;52.520;13.352;2023-02-12T01:25:25;24.30;;;5.55;;
31043;SDS011;17710;52.520;13.352;2023-02-12T01:27:52;20.42;;;5.00;;
31043;SDS011;17710;52.520;13.352;2023-02-12T01:30:19;15.80;;;4.82;;
31043;SDS011;17710;52.520;13.352;2023-02-12T01:32:48;18.67;;;4.50;;
31043;SDS011;17710;52.520;13.352;2023-02-12T01:35:14;21.33;;;5.10;;
31043;SDS011;17710;52.520;13.352;2023-02-12T01:37:41;25.02;;;4.88;;
31043;SDS011;17710;52.520;13.352;2023-02-12T01:40:18;23.80;;;4.60;;
31043;SDS011;17710;52.520;13.352;2023-02-12T01:42:44;23.40;;;4.68;;
31043;SDS011;17710;52.520;13.352;2023-02-12T01:45:31;22.90;;;4.95;;
31043;SDS011;17710;52.520;13.352;2023-02-12T01:48:09;14.43;;;4.25;;
31043;SDS011;17710;52.520;13.352;2023-02-12T01:50:36;18.00;;;4.47;;
31043;SDS011;17710;52.520;13.352;2023-02-12T01:53:03;22.63;;;4.93;;
31043;SDS011;17710;52.520;13.352;2023-02-12T01:55:32;25.60;;;5.28;;
31043;SDS011;17710;52.520;13.352;2023-02-12T01:57:58;21.50;;;5.53;;
31043;SDS011;17710;52.520;13.352;2023-02-12T02:00:25;20.58;;;5.55;;
31043;SDS011;17710;52.520;13.352;2023-02-12T02:02:52;20.58;;;5.47;;
31043;SDS011;17710;52.520;13.352;2023-02-12T02:05:22;17.77;;;4.47;;
31043;SDS011;17710;52.520;13.352;2023-02-12T02:07:55;22.75;;;5.25;;
31043;SDS011;17710;52.520;13.352;2023-02-12T02:10:22;19.17;;;5.03;;
31043;SDS011;17710;52.520;13.352;2023-02-12T02:12:49;15.32;;;4.43;;
31043;SDS011;17710;52.520;13.352;2023-02-12T02:15:34;19.50;;;4.90;;
31043;SDS011;17710;52.520;13.352;2023-02-12T02:18:04;21.60;;;5.10;;
31043;SDS011;17710;52.520;13.352;2023-02-12T02:23:44;21.00;;;5.32;;
31043;SDS011;17710;52.520;13.352;2023-02-12T02:32:10;24.02;;;4.20;;
31043;SDS011;17710;52.520;13.352;2023-02-12T02:34:41;25.45;;;5.68;;
31043;SDS011;17710;52.520;13.352;2023-02-12T02:37:16;23.20;;;5.30;;
31043;SDS011;17710;52.520;13.352;2023-02-12T02:39:47;20.35;;;5.68;;
31043;SDS011;17710;52.520;13.352;2023-02-12T02:42:20;19.83;;;4.90;;
31043;SDS011;17710;52.520;13.352;2023-02-12T02:44:54;38.78;;;5.90;;
31043;SDS011;17710;52.520;13.352;2023-02-12T02:47:28;15.35;;;4.53;;
31043;SDS011;17710;52.520;13.352;2023-02-12T02:50:01;24.60;;;4.90;;
31043;SDS011;17710;52.520;13.352;2023-02-12T02:52:34;20.85;;;4.65;;
31043;SDS011;17710;52.520;13.352;2023-02-12T02:55:04;17.33;;;4.65;;
31043;SDS011;17710;52.520;13.352;2023-02-12T02:57:34;24.60;;;5.00;;
31043;SDS011;17710;52.520;13.352;2023-02-12T03:00:06;19.83;;;5.10;;
31043;SDS011;17710;52.520;13.352;2023-02-12T03:02:40;27.58;;;6.55;;
31043;SDS011;17710;52.520;13.352;2023-02-12T03:05:12;19.55;;;6.05;;
31043;SDS011;17710;52.520;13.352;2023-02-12T03:07:43;21.25;;;4.97;;
31043;SDS011;17710;52.520;13.352;2023-02-12T03:10:17;22.13;;;5.10;;
31043;SDS011;17710;52.520;13.352;2023-02-12T03:12:46;18.10;;;4.57;;
31043;SDS011;17710;52.520;13.352;2023-02-12T03:15:18;31.35;;;5.15;;
31043;SDS011;17710;52.520;13.352;2023-02-12T03:17:50;22.75;;;4.72;;
31043;SDS011;17710;52.520;13.352;2023-02-12T03:20:17;22.88;;;4.78;;
31043;SDS011;17710;52.520;13.352;2023-02-12T03:22:48;28.38;;;5.18;;
31043;SDS011;17710;52.520;13.352;2023-02-12T03:25:19;19.30;;;5.13;;
31043;SDS011;17710;52.520;13.352;2023-02-12T03:27:51;19.85;;;5.75;;
31043;SDS011;17710;52.520;13.352;2023-02-12T03:30:24;21.50;;;5.13;;
31043;SDS011;17710;52.520;13.352;2023-02-12T03:33:06;26.65;;;5.97;;
31043;SDS011;17710;52.520;13.352;2023-02-12T03:35:41;23.27;;;5.78;;
31043;SDS011;17710;52.520;13.352;2023-02-12T03:38:19;17.70;;;4.53;;
31043;SDS011;17710;52.520;13.352;2023-02-12T03:40:53;21.33;;;5.03;;
31043;SDS011;17710;52.520;13.352;2023-02-12T03:43:26;26.63;;;4.95;;
31043;SDS011;17710;52.520;13.352;2023-02-12T03:45:57;18.30;;;5.13;;
31043;SDS011;17710;52.520;13.352;2023-02-12T03:48:31;20.38;;;5.35;;
31043;SDS011;17710;52.520;13.352;2023-02-12T03:51:02;15.63;;;4.45;;
31043;SDS011;17710;52.520;13.352;2023-02-12T03:53:35;16.40;;;4.72;;
31043;SDS011;17710;52.520;13.352;2023-02-12T03:56:02;28.40;;;6.65;;
31043;SDS011;17710;52.520;13.352;2023-02-12T03:58:33;21.63;;;5.50;;
31043;SDS011;17710;52.520;13.352;2023-02-12T04:01:02;20.13;;;5.53;;
31043;SDS011;17710;52.520;13.352;2023-02-12T04:03:31;26.73;;;5.50;;
31043;SDS011;17710;52.520;13.352;2023-02-12T04:05:57;21.55;;;4.97;;
31043;SDS011;17710;52.520;13.352;2023-02-12T04:08:24;16.05;;;5.50;;
31043;SDS011;17710;52.520;13.352;2023-02-12T04:10:55;22.20;;;5.47;;
31043;SDS011;17710;52.520;13.352;2023-02-12T04:13:32;25.35;;;6.13;;
31043;SDS011;17710;52.520;13.352;2023-02-12T04:16:11;20.20;;;4.85;;
31043;SDS011;17710;52.520;13.352;2023-02-12T04:18:46;21.27;;;5.30;;
31043;SDS011;17710;52.520;13.352;2023-02-12T04:21:17;29.10;;;6.20;;
31043;SDS011;17710;52.520;13.352;2023-02-12T04:23:55;27.13;;;5.90;;
31043;SDS011;17710;52.520;13.352;2023-02-12T04:26:33;22.73;;;5.93;;
31043;SDS011;17710;52.520;13.352;2023-02-12T04:29:07;24.67;;;6.00;;
31043;SDS011;17710;52.520;13.352;2023-02-12T04:31:42;19.05;;;5.00;;
31043;SDS011;17710;52.520;13.352;2023-02-12T04:34:17;19.52;;;5.70;;
31043;SDS011;17710;52.520;13.352;2023-02-12T04:36:51;19.38;;;5.68;;
31043;SDS011;17710;52.520;13.352;2023-02-12T04:39:24;28.58;;;5.93;;
31043;SDS011;17710;52.520;13.352;2023-02-12T04:41:54;25.33;;;5.22;;
31043;SDS011;17710;52.520;13.352;2023-02-12T04:44:24;24.42;;;5.30;;
31043;SDS011;17710;52.520;13.352;2023-02-12T04:46:52;25.40;;;5.78;;
31043;SDS011;17710;52.520;13.352;2023-02-12T04:49:20;19.73;;;5.72;;
31043;SDS011;17710;52.520;13.352;2023-02-12T04:51:47;23.98;;;5.97;;
31043;SDS011;17710;52.520;13.352;2023-02-12T04:54:14;23.05;;;6.03;;
31043;SDS011;17710;52.520;13.352;2023-02-12T04:56:42;22.63;;;5.97;;
31043;SDS011;17710;52.520;13.352;2023-02-12T04:59:09;21.95;;;5.75;;
31043;SDS011;17710;52.520;13.352;2023-02-12T05:01:36;17.02;;;5.18;;
31043;SDS011;17710;52.520;13.352;2023-02-12T05:04:04;22.25;;;5.07;;
31043;SDS011;17710;52.520;13.352;2023-02-12T05:06:33;22.45;;;5.72;;
31043;SDS011;17710;52.520;13.352;2023-02-12T05:09:01;19.50;;;5.38;;
31043;SDS011;17710;52.520;13.352;2023-02-12T05:11:28;25.10;;;5.85;;
31043;SDS011;17710;52.520;13.352;2023-02-12T05:13:55;18.13;;;5.30;;
31043;SDS011;17710;52.520;13.352;2023-02-12T05:16:21;23.75;;;5.18;;
31043;SDS011;17710;52.520;13.352;2023-02-12T05:18:48;28.05;;;5.75;;
31043;SDS011;17710;52.520;13.352;2023-02-12T05:21:15;26.20;;;5.53;;
31043;SDS011;17710;52.520;13.352;2023-02-12T05:23:43;24.15;;;4.97;;
31043;SDS011;17710;52.520;13.352;2023-02-12T05:26:11;21.15;;;5.18;;
31043;SDS011;17710;52.520;13.352;2023-02-12T05:28:39;21.45;;;4.93;;
31043;SDS011;17710;52.520;13.352;2023-02-12T05:31:06;26.13;;;5.80;;
31043;SDS011;17710;52.520;13.352;2023-02-12T05:33:34;27.20;;;6.03;;
31043;SDS011;17710;52.520;13.352;2023-02-12T05:36:04;24.77;;;5.63;;
31043;SDS011;17710;52.520;13.352;2023-02-12T05:38:31;29.70;;;5.85;;
31043;SDS011;17710;52.520;13.352;2023-02-12T05:41:01;31.60;;;5.38;;
31043;SDS011;17710;52.520;13.352;2023-02-12T05:43:28;23.27;;;5.07;;
31043;SDS011;17710;52.520;13.352;2023-02-12T05:45:57;23.33;;;5.53;;
31043;SDS011;17710;52.520;13.352;2023-02-12T05:48:23;26.83;;;5.78;;
31043;SDS011;17710;52.520;13.352;2023-02-12T05:50:50;23.40;;;5.47;;
31043;SDS011;17710;52.520;13.352;2023-02-12T05:53:16;22.98;;;5.43;;
31043;SDS011;17710;52.520;13.352;2023-02-12T05:55:42;20.45;;;5.22;;
31043;SDS011;17710;52.520;13.352;2023-02-12T05:58:10;26.20;;;5.55;;
31043;SDS011;17710;52.520;13.352;2023-02-12T06:00:37;26.40;;;5.78;;
31043;SDS011;17710;52.520;13.352;2023-02-12T06:03:03;30.42;;;6.00;;
31043;SDS011;17710;52.520;13.352;2023-02-12T06:05:29;23.05;;;5.40;;
31043;SDS011;17710;52.520;13.352;2023-02-12T06:07:56;30.23;;;6.43;;
31043;SDS011;17710;52.520;13.352;2023-02-12T06:10:22;26.67;;;5.72;;
31043;SDS011;17710;52.520;13.352;2023-02-12T06:12:52;23.73;;;5.95;;
31043;SDS011;17710;52.520;13.352;2023-02-12T06:15:20;20.05;;;5.63;;
31043;SDS011;17710;52.520;13.352;2023-02-12T06:17:47;26.25;;;5.68;;
31043;SDS011;17710;52.520;13.352;2023-02-12T06:20:13;20.65;;;5.32;;
31043;SDS011;17710;52.520;13.352;2023-02-12T06:22:40;24.88;;;5.80;;
31043;SDS011;17710;52.520;13.352;2023-02-12T06:25:06;24.10;;;6.22;;
31043;SDS011;17710;52.520;13.352;2023-02-12T06:27:33;34.47;;;5.97;;
31043;SDS011;17710;52.520;13.352;2023-02-12T06:29:59;24.77;;;5.32;;
31043;SDS011;17710;52.520;13.352;2023-02-12T06:32:27;30.00;;;5.65;;
31043;SDS011;17710;52.520;13.352;2023-02-12T06:34:53;25.95;;;6.00;;
31043;SDS011;17710;52.520;13.352;2023-02-12T06:37:20;27.67;;;5.82;;
31043;SDS011;17710;52.520;13.352;2023-02-12T06:39:46;26.50;;;6.63;;
31043;SDS011;17710;52.520;13.352;2023-02-12T06:42:13;23.63;;;5.32;;
31043;SDS011;17710;52.520;13.352;2023-02-12T06:44:39;21.98;;;5.53;;
31043;SDS011;17710;52.520;13.352;2023-02-12T06:47:05;31.38;;;6.13;;
31043;SDS011;17710;52.520;13.352;2023-02-12T06:49:33;33.20;;;6.15;;
31043;SDS011;17710;52.520;13.352;2023-02-12T06:52:00;21.52;;;5.38;;
31043;SDS011;17710;52.520;13.352;2023-02-12T06:54:26;29.48;;;5.90;;
31043;SDS011;17710;52.520;13.352;2023-02-12T06:56:52;26.98;;;7.15;;
31043;SDS011;17710;52.520;13.352;2023-02-12T06:59:19;22.52;;;5.93;;
31043;SDS011;17710;52.520;13.352;2023-02-12T07:01:46;32.67;;;6.55;;
31043;SDS011;17710;52.520;13.352;2023-02-12T07:04:14;20.85;;;4.68;;
31043;SDS011;17710;52.520;13.352;2023-02-12T07:06:42;22.27;;;5.60;;
31043;SDS011;17710;52.520;13.352;2023-02-12T07:09:08;17.95;;;5.32;;
31043;SDS011;17710;52.520;13.352;2023-02-12T07:11:35;29.42;;;6.10;;
31043;SDS011;17710;52.520;13.352;2023-02-12T07:14:02;31.25;;;5.70;;
31043;SDS011;17710;52.520;13.352;2023-02-12T07:16:28;29.00;;;6.70;;
31043;SDS011;17710;52.520;13.352;2023-02-12T07:18:55;28.65;;;5.93;;
31043;SDS011;17710;52.520;13.352;2023-02-12T07:21:21;27.75;;;5.18;;
31043;SDS011;17710;52.520;13.352;2023-02-12T07:23:50;24.67;;;5.22;;
31043;SDS011;17710;52.520;13.352;2023-02-12T07:26:18;26.63;;;5.80;;
31043;SDS011;17710;52.520;13.352;2023-02-12T07:28:46;19.50;;;5.00;;
31043;SDS011;17710;52.520;13.352;2023-02-12T07:31:13;33.63;;;5.78;;
31043;SDS011;17710;52.520;13.352;2023-02-12T07:33:42;30.52;;;5.80;;
31043;SDS011;17710;52.520;13.352;2023-02-12T07:36:10;29.77;;;5.35;;
31043;SDS011;17710;52.520;13.352;2023-02-12T07:38:37;23.73;;;5.53;;
31043;SDS011;17710;52.520;13.352;2023-02-12T07:41:06;17.17;;;4.47;;
31043;SDS011;17710;52.520;13.352;2023-02-12T07:43:38;24.40;;;6.25;;
31043;SDS011;17710;52.520;13.352;2023-02-12T07:46:06;25.40;;;5.40;;
31043;SDS011;17710;52.520;13.352;2023-02-12T07:48:33;29.70;;;5.43;;
31043;SDS011;17710;52.520;13.352;2023-02-12T07:51:01;27.30;;;5.63;;
31043;SDS011;17710;52.520;13.352;2023-02-12T07:53:32;29.00;;;6.35;;
31043;SDS011;17710;52.520;13.352;2023-02-12T07:56:08;21.48;;;4.47;;
31043;SDS011;17710;52.520;13.352;2023-02-12T07:58:36;18.58;;;4.65;;
31043;SDS011;17710;52.520;13.352;2023-02-12T08:01:10;21.35;;;4.57;;
31043;SDS011;17710;52.520;13.352;2023-02-12T08:03:38;16.85;;;4.38;;
31043;SDS011;17710;52.520;13.352;2023-02-12T08:06:08;25.95;;;4.47;;
31043;SDS011;17710;52.520;13.352;2023-02-12T08:08:35;23.10;;;5.10;;
31043;SDS011;17710;52.520;13.352;2023-02-12T08:11:03;22.40;;;4.93;;
31043;SDS011;17710;52.520;13.352;2023-02-12T08:13:32;17.52;;;5.25;;
31043;SDS011;17710;52.520;13.352;2023-02-12T08:15:59;25.10;;;5.15;;
31043;SDS011;17710;52.520;13.352;2023-02-12T08:18:26;22.75;;;4.65;;
31043;SDS011;17710;52.520;13.352;2023-02-12T08:20:59;20.55;;;4.38;;
31043;SDS011;17710;52.520;13.352;2023-02-12T08:23:26;19.65;;;5.10;;
31043;SDS011;17710;52.520;13.352;2023-02-12T08:25:52;23.83;;;5.10;;
31043;SDS011;17710;52.520;13.352;2023-02-12T08:28:19;23.75;;;4.35;;
31043;SDS011;17710;52.520;13.352;2023-02-12T08:30:48;26.52;;;4.85;;
31043;SDS011;17710;52.520;13.352;2023-02-12T08:33:15;27.88;;;4.55;;
31043;SDS011;17710;52.520;13.352;2023-02-12T08:35:41;18.75;;;4.88;;
31043;SDS011;17710;52.520;13.352;2023-02-12T08:38:08;26.50;;;4.13;;
31043;SDS011;17710;52.520;13.352;2023-02-12T08:40:34;20.67;;;4.88;;
31043;SDS011;17710;52.520;13.352;2023-02-12T08:43:01;21.15;;;4.95;;
31043;SDS011;17710;52.520;13.352;2023-02-12T08:45:27;20.92;;;4.53;;
31043;SDS011;17710;52.520;13.352;2023-02-12T08:47:55;24.20;;;4.90;;
31043;SDS011;17710;52.520;13.352;2023-02-12T08:50:21;19.48;;;5.85;;
31043;SDS011;17710;52.520;13.352;2023-02-12T08:52:48;17.65;;;3.78;;
31043;SDS011;17710;52.520;13.352;2023-02-12T08:55:17;18.35;;;4.28;;
31043;SDS011;17710;52.520;13.352;2023-02-12T08:57:44;21.30;;;4.93;;
31043;SDS011;17710;52.520;13.352;2023-02-12T09:00:10;18.58;;;4.97;;
31043;SDS011;17710;52.520;13.352;2023-02-12T09:02:37;24.33;;;5.95;;
31043;SDS011;17710;52.520;13.352;2023-02-12T09:05:05;23.75;;;5.47;;
31043;SDS011;17710;52.520;13.352;2023-02-12T09:07:32;20.50;;;4.20;;
31043;SDS011;17710;52.520;13.352;2023-02-12T09:09:58;24.67;;;5.07;;
31043;SDS011;17710;52.520;13.352;2023-02-12T09:12:25;22.30;;;5.93;;
31043;SDS011;17710;52.520;13.352;2023-02-12T09:14:52;15.07;;;4.80;;
31043;SDS011;17710;52.520;13.352;2023-02-12T09:17:19;24.98;;;4.15;;
31043;SDS011;17710;52.520;13.352;2023-02-12T09:19:45;22.55;;;5.05;;
31043;SDS011;17710;52.520;13.352;2023-02-12T09:22:13;26.50;;;5.38;;
31043;SDS011;17710;52.520;13.352;2023-02-12T09:24:40;25.20;;;5.35;;
31043;SDS011;17710;52.520;13.352;2023-02-12T09:27:07;28.60;;;5.70;;
31043;SDS011;17710;52.520;13.352;2023-02-12T09:29:36;26.42;;;5.72;;
31043;SDS011;17710;52.520;13.352;2023-02-12T09:32:03;16.45;;;4.80;;
31043;SDS011;17710;52.520;13.352;2023-02-12T09:34:32;30.25;;;6.35;;
31043;SDS011;17710;52.520;13.352;2023-02-12T09:36:59;28.30;;;6.45;;
31043;SDS011;17710;52.520;13.352;2023-02-12T09:39:27;17.83;;;5.13;;
31043;SDS011;17710;52.520;13.352;2023-02-12T09:42:13;29.80;;;6.15;;
31043;SDS011;17710;52.520;13.352;2023-02-12T09:44:52;21.27;;;5.85;;
31043;SDS011;17710;52.520;13.352;2023-02-12T09:47:25;19.33;;;5.20;;
31043;SDS011;17710;52.520;13.352;2023-02-12T09:50:00;23.27;;;5.43;;
31043;SDS011;17710;52.520;13.352;2023-02-12T09:52:35;28.80;;;6.60;;
31043;SDS011;17710;52.520;13.352;2023-02-12T09:55:04;27.15;;;7.32;;
31043;SDS011;17710;52.520;13.352;2023-02-12T09:57:32;23.45;;;5.95;;
31043;SDS011;17710;52.520;13.352;2023-02-12T10:00:00;31.48;;;6.70;;
31043;SDS011;17710;52.520;13.352;2023-02-12T10:02:31;32.58;;;8.13;;
31043;SDS011;17710;52.520;13.352;2023-02-12T10:05:00;30.17;;;7.22;;
31043;SDS011;17710;52.520;13.352;2023-02-12T10:10:22;24.17;;;7.40;;
31043;SDS011;17710;52.520;13.352;2023-02-12T10:13:01;22.27;;;7.15;;
31043;SDS011;17710;52.520;13.352;2023-02-12T10:15:31;25.77;;;6.53;;
31043;SDS011;17710;52.520;13.352;2023-02-12T10:18:10;27.48;;;6.88;;
31043;SDS011;17710;52.520;13.352;2023-02-12T10:20:57;28.75;;;6.57;;
31043;SDS011;17710;52.520;13.352;2023-02-12T10:23:39;24.88;;;7.20;;
31043;SDS011;17710;52.520;13.352;2023-02-12T10:26:19;31.23;;;10.20;;
31043;SDS011;17710;52.520;13.352;2023-02-12T10:28:50;27.10;;;7.07;;
31043;SDS011;17710;52.520;13.352;2023-02-12T10:31:20;25.40;;;6.57;;
31043;SDS011;17710;52.520;13.352;2023-02-12T10:33:51;28.52;;;6.75;;
31043;SDS011;17710;52.520;13.352;2023-02-12T10:36:25;26.65;;;7.43;;
31043;SDS011;17710;52.520;13.352;2023-02-12T10:39:03;23.23;;;8.25;;
31043;SDS011;17710;52.520;13.352;2023-02-12T10:41:40;19.30;;;7.22;;
31043;SDS011;17710;52.520;13.352;2023-02-12T10:44:12;26.20;;;7.97;;
31043;SDS011;17710;52.520;13.352;2023-02-12T10:46:39;24.58;;;7.40;;
31043;SDS011;17710;52.520;13.352;2023-02-12T10:49:05;21.23;;;7.38;;
31043;SDS011;17710;52.520;13.352;2023-02-12T10:51:40;24.48;;;8.02;;
31043;SDS011;17710;52.520;13.352;2023-02-12T10:57:06;19.13;;;8.07;;
31043;SDS011;17710;52.520;13.352;2023-02-12T10:59:36;30.20;;;9.25;;
31043;SDS011;17710;52.520;13.352;2023-02-12T11:02:04;21.48;;;7.68;;
31043;SDS011;17710;52.520;13.352;2023-02-12T11:04:45;18.35;;;7.90;;
31043;SDS011;17710;52.520;13.352;2023-02-12T11:07:12;23.83;;;7.70;;
31043;SDS011;17710;52.520;13.352;2023-02-12T11:09:39;20.48;;;8.10;;
31043;SDS011;17710;52.520;13.352;2023-02-12T11:12:15;16.65;;;7.28;;
31043;SDS011;17710;52.520;13.352;2023-02-12T11:14:47;21.75;;;8.48;;
31043;SDS011;17710;52.520;13.352;2023-02-12T11:17:17;19.23;;;7.45;;
31043;SDS011;17710;52.520;13.352;2023-02-12T11:19:59;17.52;;;8.43;;
31043;SDS011;17710;52.520;13.352;2023-02-12T11:22:28;23.20;;;8.45;;
31043;SDS011;17710;52.520;13.352;2023-02-12T11:24:58;20.77;;;7.63;;
31043;SDS011;17710;52.520;13.352;2023-02-12T11:27:28;18.67;;;8.60;;
31043;SDS011;17710;52.520;13.352;2023-02-12T11:30:11;20.88;;;7.85;;
31043;SDS011;17710;52.520;13.352;2023-02-12T11:32:42;22.73;;;8.88;;
31043;SDS011;17710;52.520;13.352;2023-02-12T11:35:12;19.40;;;8.45;;
31043;SDS011;17710;52.520;13.352;2023-02-12T11:37:42;26.13;;;9.45;;
31043;SDS011;17710;52.520;13.352;2023-02-12T11:40:15;19.52;;;8.32;;
31043;SDS011;17710;52.520;13.352;2023-02-12T11:42:47;19.25;;;7.75;;
31043;SDS011;17710;52.520;13.352;2023-02-12T11:45:15;19.77;;;7.95;;
31043;SDS011;17710;52.520;13.352;2023-02-12T11:47:44;19.27;;;7.13;;
31043;SDS011;17710;52.520;13.352;2023-02-12T11:50:16;15.80;;;7.30;;
31043;SDS011;17710;52.520;13.352;2023-02-12T11:52:49;18.80;;;7.85;;
31043;SDS011;17710;52.520;13.352;2023-02-12T11:55:18;15.70;;;6.72;;
31043;SDS011;17710;52.520;13.352;2023-02-12T11:57:49;19.38;;;7.90;;
31043;SDS011;17710;52.520;13.352;2023-02-12T12:00:18;19.80;;;8.55;;
31043;SDS011;17710;52.520;13.352;2023-02-12T12:02:48;16.77;;;8.57;;
31043;SDS011;17710;52.520;13.352;2023-02-12T12:05:20;15.50;;;8.07;;
31043;SDS011;17710;52.520;13.352;2023-02-12T12:07:49;16.83;;;7.95;;
31043;SDS011;17710;52.520;13.352;2023-02-12T12:10:23;17.83;;;7.32;;
31043;SDS011;17710;52.520;13.352;2023-02-12T12:12:58;21.00;;;9.05;;
31043;SDS011;17710;52.520;13.352;2023-02-12T12:15:29;15.68;;;7.28;;
31043;SDS011;17710;52.520;13.352;2023-02-12T12:18:20;19.40;;;7.80;;
31043;SDS011;17710;52.520;13.352;2023-02-12T12:21:10;19.85;;;6.75;;
31043;SDS011;17710;52.520;13.352;2023-02-12T12:23:41;18.70;;;8.10;;
31043;SDS011;17710;52.520;13.352;2023-02-12T12:26:14;16.50;;;8.32;;
31043;SDS011;17710;52.520;13.352;2023-02-12T12:28:50;20.15;;;8.80;;
31043;SDS011;17710;52.520;13.352;2023-02-12T12:31:21;20.30;;;8.95;;
31043;SDS011;17710;52.520;13.352;2023-02-12T12:33:55;19.48;;;8.32;;
31043;SDS011;17710;52.520;13.352;2023-02-12T12:39:33;17.17;;;9.10;;
31043;SDS011;17710;52.520;13.352;2023-02-12T12:42:09;21.42;;;8.27;;
31043;SDS011;17710;52.520;13.352;2023-02-12T12:44:55;20.45;;;9.70;;
31043;SDS011;17710;52.520;13.352;2023-02-12T12:47:34;20.92;;;9.52;;
31043;SDS011;17710;52.520;13.352;2023-02-12T12:50:19;18.90;;;7.95;;
31043;SDS011;17710;52.520;13.352;2023-02-12T12:52:57;15.88;;;8.65;;
31043;SDS011;17710;52.520;13.352;2023-02-12T12:55:36;19.90;;;9.20;;
31043;SDS011;17710;52.520;13.352;2023-02-12T12:58:14;18.50;;;9.48;;
31043;SDS011;17710;52.520;13.352;2023-02-12T13:00:54;19.27;;;9.05;;
31043;SDS011;17710;52.520;13.352;2023-02-12T13:03:53;19.38;;;9.50;;
31043;SDS011;17710;52.520;13.352;2023-02-12T13:06:34;16.50;;;9.07;;
31043;SDS011;17710;52.520;13.352;2023-02-12T13:09:16;16.80;;;8.65;;
31043;SDS011;17710;52.520;13.352;2023-02-12T13:11:56;17.30;;;7.82;;
31043;SDS011;17710;52.520;13.352;2023-02-12T13:14:41;15.70;;;7.57;;
31043;SDS011;17710;52.520;13.352;2023-02-12T13:17:15;16.73;;;7.13;;
31043;SDS011;17710;52.520;13.352;2023-02-12T13:22:22;14.55;;;6.78;;
31043;SDS011;17710;52.520;13.352;2023-02-12T13:24:57;11.35;;;6.13;;
31043;SDS011;17710;52.520;13.352;2023-02-12T13:27:31;11.48;;;5.50;;
31043;SDS011;17710;52.520;13.352;2023-02-12T13:30:06;11.27;;;6.03;;
31043;SDS011;17710;52.520;13.352;2023-02-12T13:32:45;8.10;;;5.25;;
31043;SDS011;17710;52.520;13.352;2023-02-12T13:35:18;11.43;;;6.28;;
31043;SDS011;17710;52.520;13.352;2023-02-12T13:37:53;10.82;;;5.13;;
31043;SDS011;17710;52.520;13.352;2023-02-12T13:40:21;10.48;;;4.55;;
31043;SDS011;17710;52.520;13.352;2023-02-12T13:42:52;6.82;;;3.65;;
31043;SDS011;17710;52.520;13.352;2023-02-12T13:45:28;5.40;;;3.60;;
31043;SDS011;17710;52.520;13.352;2023-02-12T13:48:10;5.22;;;3.33;;
31043;SDS011;17710;52.520;13.352;2023-02-12T13:50:50;6.25;;;4.13;;
31043;SDS011;17710;52.520;13.352;2023-02-12T13:53:28;7.15;;;3.25;;
31043;SDS011;17710;52.520;13.352;2023-02-12T13:56:04;9.73;;;3.92;;
31043;SDS011;17710;52.520;13.352;2023-02-12T13:58:49;6.75;;;4.03;;
31043;SDS011;17710;52.520;13.352;2023-02-12T14:01:35;7.38;;;4.03;;
31043;SDS011;17710;52.520;13.352;2023-02-12T14:04:27;9.40;;;4.47;;
31043;SDS011;17710;52.520;13.352;2023-02-12T14:06:57;6.32;;;3.40;;
31043;SDS011;17710;52.520;13.352;2023-02-12T14:09:32;8.63;;;2.90;;
31043;SDS011;17710;52.520;13.352;2023-02-12T14:12:03;4.80;;;2.50;;
31043;SDS011;17710;52.520;13.352;2023-02-12T14:14:33;8.48;;;3.15;;
31043;SDS011;17710;52.520;13.352;2023-02-12T14:20:25;4.90;;;3.30;;
31043;SDS011;17710;52.520;13.352;2023-02-12T14:23:00;7.22;;;3.30;;
31043;SDS011;17710;52.520;13.352;2023-02-12T14:25:45;6.32;;;3.78;;
31043;SDS011;17710;52.520;13.352;2023-02-12T14:28:26;8.10;;;3.80;;
31043;SDS011;17710;52.520;13.352;2023-02-12T14:31:19;8.30;;;4.13;;
31043;SDS011;17710;52.520;13.352;2023-02-12T14:37:30;7.80;;;4.57;;
31043;SDS011;17710;52.520;13.352;2023-02-12T14:43:23;13.10;;;5.30;;
31043;SDS011;17710;52.520;13.352;2023-02-12T14:45:58;7.25;;;3.97;;
31043;SDS011;17710;52.520;13.352;2023-02-12T14:49:02;7.07;;;4.03;;
31043;SDS011;17710;52.520;13.352;2023-02-12T14:51:32;8.23;;;3.47;;
31043;SDS011;17710;52.520;13.352;2023-02-12T14:54:04;8.93;;;4.20;;
31043;SDS011;17710;52.520;13.352;2023-02-12T14:56:40;9.90;;;4.38;;
31043;SDS011;17710;52.520;13.352;2023-02-12T14:59:12;9.00;;;3.88;;
31043;SDS011;17710;52.520;13.352;2023-02-12T15:01:42;10.20;;;4.30;;
31043;SDS011;17710;52.520;13.352;2023-02-12T15:04:11;8.70;;;4.05;;
31043;SDS011;17710;52.520;13.352;2023-02-12T15:06:42;10.07;;;4.45;;
31043;SDS011;17710;52.520;13.352;2023-02-12T15:09:20;13.30;;;3.78;;
31043;SDS011;17710;52.520;13.352;2023-02-12T15:11:57;7.80;;;4.05;;
31043;SDS011;17710;52.520;13.352;2023-02-12T15:14:29;9.15;;;3.85;;
31043;SDS011;17710;52.520;13.352;2023-02-12T15:16:58;9.15;;;4.20;;